Federico Vitale

Olheiro-Chefe - Avellino
17 Jul 2027
Sábado
Processo

Personalidade

Adaptabilidade (18) Ambição (11) Controvérsia (1) Lealdade (9) Pressão (9) Profissionalismo (6) Espírito Esportivo (11) Temperamento (18)

Perfil

Estilo de Treinamento Democrático
Licença Nacional B
Determinação 8
Gestão de Pessoas 4
Motivação 11
Disciplina 7
Satisfação no Trabalho
100%
Fadiga
0%
Função Olheiro-Chefe
Salário 47.9K p/s
Contrato 14.03.2029

Desempenho

Comportamento Bom
Eficácia do Treinamento
46%
Desenvolvimento do Jogador
35%
Prevenção de Lesões
40%
Implementação Tática
50%

Eventos Recentes

Avaliou um jogador agora
Participou de uma reunião de recrutamento agora
Participou de uma reunião de recrutamento 7d atrás
Participou de uma reunião de recrutamento 14d atrás
Participou de uma reunião de recrutamento 21d atrás
Avaliou um jogador 28d atrás
Participou de uma reunião de recrutamento 28d atrás
Apresentou um dossiê à direção 28d atrás

Monitorando agora

162
Jogador Clube Status Habilidade Confiança Observado Última observação Último voto
Jonathan Bland Barnsley Ativo 107 / 115 40% 1 12.07.2027 -
Eduardo Felicíssimo Sporting CP Negociando 116 / 119 40% 1 12.07.2027 -
Jaydee Canvot Liverpool Ativo 137 / 144 40% 1 12.07.2027 -
Miguel Figueiredo Benfica Ativo 106 / 125 40% 1 14.06.2027 -
Facundo Balatti Penarol Ativo 106 / 118 40% 1 14.06.2027 -
Joe Johnson Luton Town Negociando 108 / 102 40% 1 14.06.2027 -
Konstantin Tyukavin Arsenal Negociando 132 / 133 95% 1 01.06.2027 -
Patrick Berg Borussia Mönchengladbach Negociando 141 / 141 62% 1 01.06.2027 -
Alessio Vita Cittadella Perdido 114 / 103 72% 1 01.06.2027 -
Bjorn Meijer Sampdoria Ativo 127 / 119 40% 4 29.05.2027 -
Josh Doig Sassuolo Perdido 136 / 127 40% 2 29.05.2027 -
Jurgen Ekkelenkamp Udinese Ativo 138 / 125 40% 3 28.05.2027 -
Martin Baturina Como Ativo 131 / 138 40% 3 28.05.2027 -
Giorgi Kvernadze Frosinone Ativo 128 / 114 40% 7 27.05.2027 -
Camillo Tavernelli Arezzo Ativo 115 / 119 40% 2 27.05.2027 -
Tommaso Barbieri Cremonese Ativo 137 / 132 40% 3 26.05.2027 -
Ramón Terrats Getafe Ativo 137 / 146 40% 8 25.05.2027 -
John Yeboah Venezia Ativo 127 / 124 40% 7 25.05.2027 -
Amin Sarr Hellas Verona Ativo 131 / 130 40% 4 23.05.2027 -
Konan N'Dri Lecce Ativo 134 / 136 40% 9 22.05.2027 -
Bitello Empoli Ativo 145 / 138 40% 3 22.05.2027 -
Mattia Felici Cagliari Ativo 140 / 128 40% 6 21.05.2027 -
Nicolò Radaelli Mantova Ativo 125 / 123 40% 2 21.05.2027 -
Marco Pompetti Padova Ativo 120 / 118 40% 3 20.05.2027 -
Fahem Benaïssa Mantova Ativo 120 / 113 40% 1 18.05.2027 -
Manolo Portanova Reggiana Ativo 130 / 128 40% 4 17.05.2027 -
Aldo Florenzi Cosenza Ativo 114 / 107 40% 3 17.05.2027 -
Niccolò Pierozzi Palermo Ativo 127 / 117 40% 3 13.05.2027 -
Lameck Banda Lecce Ativo 129 / 122 40% 1 10.05.2027 -
Lucas Da Cunha Como Ativo 147 / 150 40% 3 08.05.2027 -
Tomáš Suslov Hellas Verona Ativo 124 / 138 40% 1 05.05.2027 -
Davide Bragantini Mantova Ativo 115 / 119 40% 3 03.05.2027 -
Mattéo Tramoni Pisa Ativo 135 / 141 40% 1 03.05.2027 -
Omri Gandelman Lecce Ativo 125 / 126 40% 1 02.05.2027 -
Danilo Veiga Lecce Ativo 121 / 119 40% 1 02.05.2027 -
Isaiah Jones Luton Town Ativo 129 / 121 40% 3 29.04.2027 -
Bjarki Bjarkason Südtirol Ativo 107 / 120 40% 1 28.04.2027 -
Santiago Pierotti Lecce Ativo 131 / 134 40% 3 22.04.2027 -
Romano Floriani Mussolini Parma Ativo 133 / 119 40% 2 21.04.2027 -
Anthony Oyono Frosinone Ativo 128 / 131 40% 3 18.04.2027 -
Vitinha Genoa Ativo 138 / 128 40% 5 17.04.2027 -
Pontus Almqvist Parma Ativo 134 / 134 40% 1 13.04.2027 -
Bernat Guiu Virtus Entella Ativo 112 / 121 40% 3 10.04.2027 -
Aleksa Terzić Frosinone Ativo 125 / 138 40% 2 08.04.2027 -
Adrián Bernabé Parma Ativo 136 / 134 40% 1 04.04.2027 -
Giacomo Olzer Pescara Ativo 127 / 117 40% 1 03.04.2027 -
Samuele Angori Pisa Ativo 137 / 127 40% 2 02.04.2027 -
Naïs Djouahra Arouca Ativo 131 / 124 40% 2 02.04.2027 -
Alessandro Bianco Modena Ativo 133 / 132 40% 1 31.03.2027 -
Marco Imperiale Catanzaro Ativo 115 / 125 40% 1 31.03.2027 -
Duccio Degli Innocenti Empoli Ativo 116 / 125 40% 2 30.03.2027 -
Imrân Louza Watford Ativo 134 / 125 40% 1 30.03.2027 -
Andrea Colpani Monza Ativo 136 / 135 40% 2 27.03.2027 -
Filippo Distefano Empoli Ativo 111 / 116 40% 1 18.03.2027 -
Billy Gilmour Napoli Ativo 139 / 150 40% 1 16.03.2027 -
Antoine Bernede Hellas Verona Ativo 134 / 129 40% 2 15.03.2027 -
Álex Valle Como Ativo 136 / 141 40% 1 15.03.2027 -
Relebohile Mofokeng Orlando Pirates Ativo 125 / 126 40% 3 13.03.2027 -
Camilo Durán Bloemfontein Celtic Ativo 129 / 121 40% 4 10.03.2027 -
Helinho Toluca Ativo 130 / 119 40% 1 10.03.2027 -
Mduduzi Shabalala Kaizer Chiefs Ativo 110 / 105 40% 1 10.03.2027 -
Tshepang Moremi Orlando Pirates Ativo 116 / 121 40% 1 06.03.2027 -
Riyad Idrissi Torino Ativo 117 / 139 40% 2 25.01.2027 -
Alphadjo Cissé Pisa Ativo 118 / 133 40% 2 25.01.2027 -
Gabriele Alesi Catanzaro Ativo 96 / 106 72% 1 25.01.2027 -
Borna Knezović Casarano Ativo 102 / 114 40% 1 25.01.2027 -
Adnan Carrasco FC Nantes Negociando 151 / 156 64% 1 01.01.2027 -
Adrian Dragusin CFR Cluj Negociando 141 / 142 63% 1 01.01.2027 -
Thulani Billiat Utrecht Ativo 136 / 136 61% 1 01.01.2027 -
Mao Hosoya Manchester City Negociando 134 / 135 67% 1 01.01.2027 -
Radek Šiler Podbrezova Ativo 121 / 114 40% 2 31.12.2026 -
Jeffrey Adjei Wa All Stars Ativo 94 / 93 40% 1 30.12.2026 -
Andrea Carboni Monza Ativo 128 / 117 40% 1 30.12.2026 -
Mattia Viti Sampdoria Ativo 136 / 141 40% 1 30.12.2026 -
Federico Gattoni Ascoli Ativo 123 / 120 40% 1 30.12.2026 -
Monty Batlhabane Polokwane City Ativo 84 / 105 40% 1 30.12.2026 -
Alex Amorim Genoa Ativo 136 / 144 40% 2 29.12.2026 -
Davide Bartesaghi AC Milan Ativo 137 / 135 40% 2 29.12.2026 -
Bassem El Hadary Masr El Makasa Ativo 120 / 138 40% 1 29.12.2026 -
Lander Astiazarán Real Sociedad Ativo 100 / 113 40% 1 27.12.2026 -
Christos Mouzakitis Hull City Ativo 128 / 126 40% 1 27.12.2026 -
Emanuele Schimmenti Potenza Ativo 113 / 119 40% 1 24.12.2026 -
Luther Tau SuperSport United Ativo 120 / 100 40% 3 23.12.2026 -
Jens Odgaard Bologna Ativo 142 / 150 40% 4 22.12.2026 -
Emanuele Pecorino Catanzaro Ativo 101 / 111 40% 2 21.12.2026 -
Claudy M'Buyi Rapid Wien Ativo 116 / 115 40% 1 21.12.2026 -
Kenan Dervišagić Floriana Ativo 105 / 91 40% 1 21.12.2026 -
Guillaume Furrer Lecco Ativo 111 / 94 40% 1 20.12.2026 -
Pedro Mendes Modena Ativo 128 / 108 40% 3 19.12.2026 -
Thierry Rendall Correia Venezia Ativo 143 / 146 40% 1 19.12.2026 -
Ben Nelson Leicester City Ativo 124 / 125 40% 1 19.12.2026 -
Samuele Vignato HNK Rijeka Ativo 108 / 116 40% 4 15.12.2026 -
Mohamed Mallahi Pro Vercelli Ativo 100 / 111 40% 1 15.12.2026 -
Etiosa Ighodaro Kaizer Chiefs Ativo 121 / 104 40% 3 14.12.2026 -
Marin Benko Zadar Ativo 137 / 113 40% 1 14.12.2026 -
Marco Da Graca Novara Ativo 95 / 105 40% 2 12.12.2026 -
Lucas Cornejo Estudiantes Ativo 106 / 118 40% 1 11.12.2026 -
Ethan Mbappé LOSC Lille Ativo 137 / 130 40% 1 11.12.2026 -
Willem Geubbels Lecce Ativo 134 / 121 40% 1 11.12.2026 -
Ammar Ramadan DAC Dunajska Streda Ativo 129 / 119 40% 3 10.12.2026 -
Armstrong Oko-Flex Levski Ativo 117 / 132 40% 2 09.12.2026 -
Jacopo Desogus AlbinoLeffe Ativo 100 / 96 40% 1 09.12.2026 -
Luca Moro Padova Ativo 122 / 124 40% 1 08.12.2026 -
Vinko Rozić Istra 1961 Ativo 110 / 122 40% 1 06.12.2026 -
Darío Ramírez Real Sociedad Ativo 96 / 103 40% 1 04.12.2026 -
Daniel Awuni Aduana Stars Ativo 82 / 92 40% 1 04.12.2026 -
Mattia Della Rocca Vicenza Ativo 83 / 95 40% 1 03.12.2026 -
Troy Parrott Betis Ativo 133 / 130 40% 1 01.12.2026 -
Ádin Molnár MTK Budapest Ativo 106 / 105 40% 1 30.11.2026 -
Talles Magno New York City Ativo 135 / 139 40% 1 28.11.2026 -
David Romero Parma Ativo 124 / 128 40% 3 27.11.2026 -
Dejan Joveljić Seattle Sounders Ativo 117 / 132 40% 1 27.11.2026 -
Isaac Matondo Koper Ativo 101 / 119 40% 1 25.11.2026 -
David Ankeye Zeleznicar Pancevo Ativo 102 / 123 40% 1 25.11.2026 -
David Miculescu FCSB Ativo 116 / 105 40% 3 24.11.2026 Observar
Matteo Rover Reggiana Ativo 113 / 113 40% 2 23.11.2026 -
Kelvin Yeboah Minnesota United FC Ativo 136 / 118 40% 4 21.11.2026 -
Ştefan Baiaram Universitatea Craiova Ativo 114 / 124 40% 1 19.11.2026 -
Simone Rabbi Ravenna Ativo 111 / 98 40% 1 19.11.2026 -
Tomás Aranda Boca Juniors Ativo 115 / 124 40% 1 19.11.2026 -
Andrea Mattioli Arzignano Ativo 99 / 112 40% 1 17.11.2026 -
Diego García Malmo FF Ativo 129 / 107 40% 1 16.11.2026 -
Juan Manuel Boselli Krasnodar Ativo 127 / 115 40% 1 16.11.2026 -
Mojmír Chytil Hajduk Split Ativo 132 / 129 40% 1 13.11.2026 -
Bénie Traoré New York City Ativo 129 / 122 40% 1 12.11.2026 -
Liel Abada Charlotte Football Club Ativo 142 / 139 40% 1 11.11.2026 -
Jerome Karelse Golden Arrows Ativo 105 / 97 40% 1 10.11.2026 -
Eddie Salcedo OFI Ativo 113 / 111 40% 1 10.11.2026 -
Jacques Siwe Rubin Ativo 109 / 118 40% 1 09.11.2026 -
Michele Šego Hajduk Split Ativo 131 / 109 40% 1 06.11.2026 -
Tadeo Allende Inter Miami CF Ativo 114 / 130 40% 1 06.11.2026 -
Richard Koné Queens Park Rangers Ativo 122 / 125 40% 1 02.11.2026 -
Marezi Portsmouth Ativo 124 / 125 40% 1 02.11.2026 -
Rumarn Burrell Queens Park Rangers Ativo 130 / 123 40% 2 01.11.2026 -
Ilyas Ansah Hull City Ativo 125 / 141 40% 1 01.11.2026 -
George Hirst Stoke City Ativo 138 / 137 40% 1 29.10.2026 -
Tyrese Campbell Sheffield United Ativo 129 / 129 40% 1 28.10.2026 -
Ibrahim Salah Basel Ativo 118 / 114 40% 1 27.10.2026 -
Giacomo Raspadori Atalanta Ativo 152 / 140 40% 4 26.10.2026 -
Tommy Conway Middlesbrough Ativo 121 / 120 40% 1 26.10.2026 -
Gianluca Scamacca Atalanta Ativo 143 / 147 40% 1 25.10.2026 -
Charles De Ketelaere Atalanta Ativo 155 / 165 40% 3 21.10.2026 -
Bradley Fink Wycombe Wanderers Ativo 105 / 117 40% 1 21.10.2026 -
Martín Ojeda Orlando City Ativo 141 / 128 40% 1 15.10.2026 -
Dávid Strelec Middlesbrough Ativo 142 / 136 40% 1 15.10.2026 -
Santiago Sala Güemes Ativo 117 / 110 40% 1 13.10.2026 -
Luca Langoni New England Revolution Ativo 135 / 132 40% 1 11.10.2026 -
Nicolò Zaniolo Udinese Ativo 141 / 144 40% 1 10.10.2026 -
Gastón Verón Argentinos Juniors Ativo 124 / 128 40% 1 09.10.2026 -
Luca Franco Arsenal Ativo 105 / 118 40% 1 09.10.2026 -
Enzo Avaro Mitre Ativo 108 / 116 40% 1 08.10.2026 -
Florián Monzón Atlas Ativo 114 / 142 40% 1 08.10.2026 -
Nicolás Cordero Aldosivi Ativo 120 / 112 40% 1 05.10.2026 -
Santiago Apa All Boys Ativo 108 / 114 40% 1 05.10.2026 -
Thiago Calone All Boys Ativo 106 / 116 40% 1 05.10.2026 -
Cian Ashford Cardiff City Ativo 116 / 124 40% 2 10.09.2026 -
Lucas Richarte Temperley Ativo 96 / 115 40% 1 10.09.2026 -
Tobías Andrada Betis Ativo 113 / 129 40% 1 08.09.2026 -
Victor Froholdt Porto Ativo 151 / 163 40% 1 31.08.2026 -
Jorrel Hato Chelsea Ativo 145 / 145 40% 1 31.08.2026 -
Mihailo Ivanović Millwall Ativo 121 / 136 40% 1 18.08.2026 -
Peio Canales Athletic Bilbao Ativo 130 / 132 40% 1 01.08.2026 -